createdAt,value
2018-12-20T00:00:06.421Z,14.43
2018-12-20T00:02:34.942Z,13.50
2018-12-20T00:05:05.899Z,13.83
2018-12-20T00:07:34.428Z,13.43
2018-12-20T00:10:04.370Z,13.77
2018-12-20T00:12:33.051Z,13.90
2018-12-20T00:15:02.762Z,12.87
2018-12-20T00:17:36.608Z,13.17
2018-12-20T00:20:05.658Z,13.13
2018-12-20T00:22:34.306Z,13.30
2018-12-20T00:25:04.711Z,12.90
2018-12-20T00:27:33.216Z,12.37
2018-12-20T00:30:02.712Z,13.63
2018-12-20T00:32:31.203Z,12.73
2018-12-20T00:34:59.698Z,12.50
2018-12-20T00:37:28.322Z,11.90
2018-12-20T00:39:56.815Z,12.90
2018-12-20T00:42:25.423Z,12.53
2018-12-20T00:44:54.096Z,11.37
2018-12-20T00:47:26.084Z,11.43
2018-12-20T00:49:54.912Z,11.23
2018-12-20T00:52:23.404Z,11.53
2018-12-20T00:54:52.411Z,11.10
2018-12-20T00:57:21.289Z,10.77
2018-12-20T00:59:49.861Z,10.27
2018-12-20T01:02:18.343Z,10.50
2018-12-20T01:04:46.924Z,10.50
2018-12-20T01:07:15.423Z,10.17
2018-12-20T01:09:44.205Z,10.70
2018-12-20T01:12:13.194Z,10.07
2018-12-20T01:14:45.352Z,10.10
2018-12-20T01:17:12.407Z,10.40
2018-12-20T01:19:41.152Z,10.80
2018-12-20T01:22:09.952Z,10.60
2018-12-20T01:24:38.579Z,10.90
2018-12-20T01:27:07.406Z,10.20
2018-12-20T01:29:35.873Z,11.07
2018-12-20T01:32:05.753Z,9.97
2018-12-20T01:34:34.527Z,11.00
2018-12-20T01:37:04.544Z,11.13
2018-12-20T01:39:33.299Z,10.73
2018-12-20T01:42:03.085Z,10.50
2018-12-20T01:44:31.770Z,10.10
2018-12-20T01:47:00.436Z,11.17
2018-12-20T01:49:29.127Z,10.07
2018-12-20T01:51:58.299Z,10.33
2018-12-20T01:54:27.184Z,10.90
2018-12-20T01:56:55.887Z,10.43
2018-12-20T01:59:24.625Z,10.50
2018-12-20T02:01:53.276Z,10.60
2018-12-20T02:04:21.990Z,9.97
2018-12-20T02:06:50.671Z,10.73
2018-12-20T02:09:19.373Z,11.07
2018-12-20T02:11:47.978Z,10.57
2018-12-20T02:14:16.658Z,11.27
2018-12-20T02:16:45.248Z,11.17
2018-12-20T02:19:15.635Z,12.47
2018-12-20T02:21:44.666Z,10.70
2018-12-20T02:24:13.264Z,11.83
2018-12-20T02:26:41.764Z,10.93
2018-12-20T02:29:10.776Z,11.60
2018-12-20T02:31:39.286Z,11.20
2018-12-20T02:34:07.872Z,11.40
2018-12-20T02:36:36.406Z,11.33
2018-12-20T02:39:08.033Z,11.63
2018-12-20T02:41:37.727Z,11.33
2018-12-20T02:44:06.301Z,11.07
2018-12-20T02:46:35.020Z,11.83
2018-12-20T02:49:05.712Z,11.40
2018-12-20T02:51:34.313Z,11.67
2018-12-20T02:54:04.505Z,11.33
2018-12-20T02:56:33.146Z,11.90
2018-12-20T02:59:03.265Z,11.53
2018-12-20T03:01:31.863Z,11.40
2018-12-20T03:04:00.953Z,11.93
2018-12-20T03:06:30.095Z,12.37
2018-12-20T03:08:58.639Z,12.67
2018-12-20T03:11:27.355Z,12.33
2018-12-20T03:13:55.919Z,13.50
2018-12-20T03:16:24.509Z,11.83
2018-12-20T03:18:53.189Z,11.47
2018-12-20T03:21:22.770Z,12.27
2018-12-20T03:23:51.238Z,11.80
2018-12-20T03:26:19.793Z,11.77
2018-12-20T03:28:48.414Z,11.07
2018-12-20T03:31:17.114Z,11.67
2018-12-20T03:33:46.077Z,11.47
2018-12-20T03:36:14.809Z,11.13
2018-12-20T03:38:43.478Z,10.93
2018-12-20T03:41:12.080Z,11.20
2018-12-20T03:43:40.619Z,11.90
2018-12-20T03:46:09.422Z,11.70
2018-12-20T03:48:38.639Z,11.70
2018-12-20T03:51:07.226Z,11.17
2018-12-20T03:53:35.941Z,11.30
2018-12-20T03:56:05.207Z,11.40
2018-12-20T03:58:33.867Z,10.67
2018-12-20T04:01:04.307Z,11.30
2018-12-20T04:03:33.125Z,10.97
2018-12-20T04:06:03.260Z,10.30
2018-12-20T04:08:31.972Z,10.17
2018-12-20T04:11:00.653Z,9.27
2018-12-20T04:13:29.251Z,9.20
2018-12-20T04:15:58.119Z,9.03
2018-12-20T04:18:26.745Z,9.37
2018-12-20T04:20:55.340Z,9.10
2018-12-20T04:23:26.131Z,8.67
2018-12-20T04:25:54.674Z,7.37
2018-12-20T04:28:23.233Z,7.80
2018-12-20T04:30:52.035Z,7.50
2018-12-20T04:33:20.644Z,8.10
2018-12-20T04:35:49.203Z,7.63
2018-12-20T04:38:17.849Z,8.13
2018-12-20T04:40:46.948Z,7.90
2018-12-20T04:43:15.692Z,8.17
2018-12-20T04:45:46.847Z,7.80
2018-12-20T04:48:15.892Z,7.83
2018-12-20T04:50:44.647Z,8.13
2018-12-20T04:53:13.112Z,8.77
2018-12-20T04:55:41.641Z,8.63
2018-12-20T04:58:10.184Z,8.33
2018-12-20T05:00:40.585Z,8.67
2018-12-20T05:03:09.543Z,8.40
2018-12-20T05:05:38.144Z,8.50
2018-12-20T05:08:06.672Z,9.03
2018-12-20T05:10:35.240Z,8.03
2018-12-20T05:13:05.507Z,8.77
2018-12-20T05:15:34.028Z,8.40
2018-12-20T05:18:03.915Z,8.77
2018-12-20T05:20:32.737Z,8.60
2018-12-20T05:23:02.816Z,8.57
2018-12-20T05:25:32.487Z,8.37
2018-12-20T05:28:03.160Z,8.17
2018-12-20T05:30:31.698Z,8.10
2018-12-20T05:33:00.203Z,7.53
2018-12-20T05:35:28.824Z,8.27
2018-12-20T05:37:57.616Z,8.43
2018-12-20T05:40:26.608Z,8.30
2018-12-20T05:42:55.099Z,8.33
2018-12-20T05:45:23.583Z,8.13
2018-12-20T05:47:52.430Z,8.80
2018-12-20T05:50:21.277Z,8.73
2018-12-20T05:52:50.221Z,8.97
2018-12-20T05:55:19.046Z,8.97
2018-12-20T05:57:47.718Z,9.20
2018-12-20T06:00:16.792Z,9.70
2018-12-20T06:02:45.536Z,8.93
2018-12-20T06:05:14.432Z,9.47
2018-12-20T06:07:43.256Z,10.13
2018-12-20T06:10:11.984Z,9.37
2018-12-20T06:12:40.573Z,9.83
2018-12-20T06:15:09.380Z,10.07
2018-12-20T06:17:37.940Z,10.40
2018-12-20T06:20:06.617Z,10.53
2018-12-20T06:22:35.193Z,10.67
2018-12-20T06:25:06.140Z,10.67
2018-12-20T06:27:34.834Z,10.30
2018-12-20T06:30:05.675Z,11.73
2018-12-20T06:32:34.238Z,11.20
2018-12-20T06:35:04.521Z,10.13
2018-12-20T06:37:33.066Z,10.60
2018-12-20T06:40:02.801Z,10.13
2018-12-20T06:42:32.149Z,10.50
2018-12-20T06:45:00.651Z,10.70
2018-12-20T06:47:29.169Z,10.80
2018-12-20T06:49:57.671Z,10.70
2018-12-20T06:52:27.712Z,10.90
2018-12-20T06:54:56.405Z,10.77
2018-12-20T06:57:24.877Z,10.60
2018-12-20T06:59:53.349Z,11.00
2018-12-20T07:02:21.867Z,11.63
2018-12-20T07:04:50.364Z,11.20
2018-12-20T07:07:18.859Z,10.83
2018-12-20T07:09:47.388Z,11.00
2018-12-20T07:12:15.877Z,10.83
2018-12-20T07:14:44.422Z,11.33
2018-12-20T07:17:13.025Z,11.00
2018-12-20T07:19:41.510Z,11.03
2018-12-20T07:22:10.102Z,11.67
2018-12-20T07:24:38.628Z,11.50
2018-12-20T07:27:07.865Z,11.53
2018-12-20T07:29:37.403Z,11.43
2018-12-20T07:32:06.022Z,11.13
2018-12-20T07:34:34.549Z,10.70
2018-12-20T07:37:04.699Z,10.33
2018-12-20T07:39:33.261Z,10.77
2018-12-20T07:42:02.815Z,10.87
2018-12-20T07:44:31.322Z,10.97
2018-12-20T07:46:59.838Z,10.20
2018-12-20T07:49:28.566Z,10.47
2018-12-20T07:51:57.111Z,9.67
2018-12-20T07:54:25.712Z,9.90
2018-12-20T07:56:54.606Z,9.97
2018-12-20T07:59:25.041Z,9.93
2018-12-20T08:01:53.523Z,9.80
2018-12-20T08:04:22.051Z,9.90
2018-12-20T08:06:50.514Z,9.10
2018-12-20T08:09:19.105Z,9.50
2018-12-20T08:11:47.674Z,9.37
2018-12-20T08:14:16.277Z,9.63
2018-12-20T08:16:46.169Z,9.30
2018-12-20T08:19:15.002Z,9.10
2018-12-20T08:21:43.558Z,9.13
2018-12-20T08:24:12.108Z,9.83
2018-12-20T08:26:40.758Z,9.40
2018-12-20T08:29:09.272Z,8.93
2018-12-20T08:31:37.745Z,9.30
2018-12-20T08:34:06.255Z,9.23
2018-12-20T08:36:34.838Z,9.60
2018-12-20T08:39:07.064Z,8.97
2018-12-20T08:41:37.141Z,8.40
2018-12-20T08:44:05.603Z,8.73
2018-12-20T08:46:34.118Z,9.30
2018-12-20T08:49:03.789Z,9.27
2018-12-20T08:51:32.303Z,8.60
2018-12-20T08:54:00.765Z,9.33
2018-12-20T08:56:29.365Z,8.13
2018-12-20T08:58:57.848Z,8.37
2018-12-20T09:01:26.387Z,8.23
2018-12-20T09:03:54.888Z,7.47
2018-12-20T09:06:23.512Z,8.53
2018-12-20T09:08:52.076Z,8.00
2018-12-20T09:11:20.585Z,7.87
2018-12-20T09:13:49.497Z,7.73
2018-12-20T09:16:21.953Z,6.57
2018-12-20T09:18:50.593Z,8.07
2018-12-20T09:21:19.160Z,7.80
2018-12-20T09:23:47.725Z,7.50
2018-12-20T09:26:16.527Z,7.10
2018-12-20T09:28:45.000Z,7.80
2018-12-20T09:31:13.583Z,7.47
2018-12-20T09:33:42.084Z,7.77
2018-12-20T09:36:10.723Z,7.00
2018-12-20T09:38:39.613Z,6.90
2018-12-20T09:41:08.224Z,7.00
2018-12-20T09:43:36.804Z,6.87
2018-12-20T09:46:05.751Z,7.20
2018-12-20T09:48:34.247Z,6.67
2018-12-20T09:51:03.929Z,6.43
2018-12-20T09:53:32.613Z,6.27
2018-12-20T09:56:02.964Z,6.87
2018-12-20T09:58:31.502Z,6.43
2018-12-20T10:01:00.062Z,6.60
2018-12-20T10:03:28.576Z,6.43
2018-12-20T10:05:57.130Z,6.27
2018-12-20T10:08:25.785Z,6.50
2018-12-20T10:10:54.734Z,6.30
2018-12-20T10:13:23.306Z,6.53
2018-12-20T10:15:51.855Z,5.80
2018-12-20T10:18:20.526Z,6.27
2018-12-20T10:20:49.109Z,6.67
2018-12-20T10:23:17.828Z,6.47
2018-12-20T10:25:46.337Z,6.37
2018-12-20T10:28:14.828Z,5.90
2018-12-20T10:30:43.443Z,5.60
2018-12-20T10:33:12.313Z,5.60
2018-12-20T10:35:40.903Z,5.63
2018-12-20T10:38:09.531Z,5.73
2018-12-20T10:40:38.089Z,5.47
2018-12-20T10:43:06.650Z,5.80
2018-12-20T10:45:37.781Z,5.60
2018-12-20T10:48:06.300Z,5.03
2018-12-20T10:50:34.876Z,5.33
2018-12-20T10:53:07.870Z,4.70
2018-12-20T10:55:36.438Z,5.37
2018-12-20T10:58:05.275Z,5.40
2018-12-20T11:00:39.241Z,5.17
2018-12-20T11:03:12.944Z,4.63
2018-12-20T11:05:47.201Z,4.40
2018-12-20T11:08:21.084Z,5.13
2018-12-20T11:10:51.698Z,4.60
2018-12-20T11:13:25.936Z,4.83
2018-12-20T11:15:54.456Z,4.73
2018-12-20T11:18:23.462Z,4.60
2018-12-20T11:20:51.946Z,4.43
2018-12-20T11:23:20.495Z,4.70
2018-12-20T11:25:49.103Z,4.70
2018-12-20T11:28:17.628Z,4.43
2018-12-20T11:30:46.169Z,4.57
2018-12-20T11:33:14.651Z,4.60
2018-12-20T11:35:43.154Z,4.10
2018-12-20T11:38:11.874Z,4.53
2018-12-20T11:40:40.975Z,4.20
2018-12-20T11:43:09.824Z,4.23
2018-12-20T11:51:16.077Z,3.10
2018-12-20T11:53:44.584Z,3.80
2018-12-20T11:56:13.082Z,4.10
2018-12-20T11:58:41.711Z,4.80
2018-12-20T12:01:10.322Z,4.43
2018-12-20T12:03:38.855Z,4.03
2018-12-20T12:06:07.423Z,4.30
2018-12-20T12:08:35.995Z,4.40
2018-12-20T12:11:04.852Z,4.47
2018-12-20T12:13:33.470Z,4.60
2018-12-20T12:16:03.693Z,4.37
2018-12-20T12:18:32.233Z,4.70
2018-12-20T12:21:00.778Z,4.87
2018-12-20T12:23:29.931Z,4.87
2018-12-20T12:25:58.401Z,4.60
2018-12-20T12:28:27.246Z,4.73
2018-12-20T12:30:56.011Z,4.37
2018-12-20T12:33:24.640Z,4.23
2018-12-20T12:35:53.251Z,4.30
2018-12-20T12:38:21.743Z,4.90
2018-12-20T12:40:50.257Z,4.17
2018-12-20T12:43:18.755Z,4.67
2018-12-20T12:45:47.563Z,4.63
2018-12-20T12:48:16.375Z,4.40
2018-12-20T12:50:44.889Z,4.40
2018-12-20T12:53:13.383Z,5.77
2018-12-20T12:55:41.890Z,4.70
2018-12-20T12:58:10.581Z,4.47
2018-12-20T13:00:40.190Z,4.60
2018-12-20T13:03:09.282Z,4.80
2018-12-20T13:05:37.781Z,4.20
2018-12-20T13:08:06.260Z,4.40
2018-12-20T13:10:34.788Z,4.30
2018-12-20T13:13:04.484Z,4.17
2018-12-20T13:15:33.766Z,4.20
2018-12-20T13:18:04.613Z,4.47
2018-12-20T13:20:35.436Z,4.27
2018-12-20T13:23:05.044Z,3.90
2018-12-20T13:25:33.644Z,4.00
2018-12-20T13:28:03.770Z,3.83
2018-12-20T13:30:32.245Z,3.70
2018-12-20T13:33:00.735Z,4.00
2018-12-20T13:35:29.330Z,4.20
2018-12-20T13:37:57.795Z,4.30
2018-12-20T13:40:26.324Z,4.10
2018-12-20T13:42:54.867Z,4.50
2018-12-20T13:45:23.539Z,4.63
2018-12-20T13:47:53.618Z,4.17
2018-12-20T13:50:22.104Z,5.10
2018-12-20T13:52:50.862Z,4.50
2018-12-20T13:55:19.539Z,5.03
2018-12-20T13:57:48.038Z,4.90
2018-12-20T14:00:16.516Z,5.00
2018-12-20T14:02:45.283Z,5.27
2018-12-20T14:05:13.779Z,4.77
2018-12-20T14:07:42.820Z,4.90
2018-12-20T14:10:11.294Z,4.80
2018-12-20T14:12:39.856Z,4.73
2018-12-20T14:15:08.920Z,5.70
2018-12-20T14:17:37.404Z,5.67
2018-12-20T14:20:07.132Z,5.80
2018-12-20T14:22:35.645Z,5.20
2018-12-20T14:25:05.751Z,6.20
2018-12-20T14:27:34.207Z,5.63
2018-12-20T14:30:04.131Z,5.70
2018-12-20T14:32:32.906Z,6.03
2018-12-20T14:35:02.709Z,5.90
2018-12-20T14:37:31.168Z,5.93
2018-12-20T14:39:59.650Z,6.00
2018-12-20T14:42:28.130Z,5.87
2018-12-20T14:44:57.078Z,5.73
2018-12-20T14:47:25.591Z,6.00
2018-12-20T14:49:54.048Z,5.53
2018-12-20T14:52:22.546Z,5.17
2018-12-20T14:54:51.461Z,5.20
2018-12-20T14:57:20.040Z,5.83
2018-12-20T14:59:48.589Z,5.33
2018-12-20T15:02:17.181Z,4.80
2018-12-20T15:04:45.667Z,5.30
2018-12-20T15:07:14.154Z,5.67
2018-12-20T15:09:42.624Z,5.40
2018-12-20T15:12:11.169Z,5.93
2018-12-20T15:14:40.154Z,5.53
2018-12-20T15:17:08.732Z,6.00
2018-12-20T15:19:37.442Z,5.60
2018-12-20T15:22:05.936Z,5.77
2018-12-20T15:24:34.495Z,5.97
2018-12-20T15:27:04.984Z,6.10
2018-12-20T15:29:33.470Z,5.53
2018-12-20T15:32:02.722Z,6.60
2018-12-20T15:34:31.507Z,6.50
2018-12-20T15:36:59.954Z,7.00
2018-12-20T15:39:29.933Z,7.63
2018-12-20T15:41:58.570Z,7.67
2018-12-20T15:44:27.047Z,8.33
2018-12-20T15:46:55.552Z,8.37
2018-12-20T15:49:24.061Z,8.73
2018-12-20T15:51:52.551Z,9.13
2018-12-20T15:54:21.326Z,10.03
2018-12-20T15:56:49.789Z,9.40
2018-12-20T15:59:18.315Z,9.37
2018-12-20T16:01:46.946Z,10.10
2018-12-20T16:04:15.592Z,10.07
2018-12-20T16:06:44.238Z,10.60
2018-12-20T16:09:12.895Z,11.20
2018-12-20T16:11:41.520Z,10.50
2018-12-20T16:14:10.064Z,11.23
2018-12-20T16:16:44.335Z,11.83
2018-12-20T16:19:13.370Z,11.17
2018-12-20T16:21:41.870Z,11.27
2018-12-20T16:24:10.407Z,12.03
2018-12-20T16:26:38.987Z,11.33
2018-12-20T16:29:07.781Z,11.10
2018-12-20T16:31:36.290Z,11.13
2018-12-20T16:34:05.390Z,11.67
2018-12-20T16:36:34.010Z,11.77
2018-12-20T16:39:04.995Z,11.57
2018-12-20T16:41:34.485Z,11.73
2018-12-20T16:44:04.620Z,10.90
2018-12-20T16:46:33.102Z,11.43
2018-12-20T16:49:02.756Z,11.27
2018-12-20T16:51:31.250Z,11.60
2018-12-20T16:53:59.825Z,11.80
2018-12-20T16:56:28.340Z,10.80
2018-12-20T16:58:56.824Z,10.37
2018-12-20T17:01:25.412Z,11.37
2018-12-20T17:03:54.031Z,12.13
2018-12-20T17:06:22.507Z,11.90
2018-12-20T17:08:51.436Z,12.07
2018-12-20T17:11:19.933Z,11.43
2018-12-20T17:13:48.439Z,13.20
2018-12-20T17:16:17.042Z,11.67
2018-12-20T17:18:45.637Z,11.57
2018-12-20T17:21:14.131Z,12.40
2018-12-20T17:23:43.046Z,12.43
2018-12-20T17:26:11.569Z,13.13
2018-12-20T17:28:40.028Z,13.13
2018-12-20T17:31:08.544Z,12.03
2018-12-20T17:33:37.264Z,14.90
2018-12-20T17:36:06.605Z,13.57
2018-12-20T17:38:35.107Z,13.10
2018-12-20T17:41:04.815Z,13.37
2018-12-20T17:43:33.296Z,14.47
2018-12-20T17:46:02.758Z,13.83
2018-12-20T17:48:31.488Z,14.13
2018-12-20T17:51:00.001Z,14.30
2018-12-20T17:53:28.482Z,14.63
2018-12-20T17:55:57.166Z,14.07
2018-12-20T17:58:25.669Z,15.27
2018-12-20T18:00:54.141Z,14.87
2018-12-20T18:03:23.096Z,14.67
2018-12-20T18:05:51.582Z,14.50
2018-12-20T18:08:20.091Z,14.87
2018-12-20T18:10:48.614Z,15.43
2018-12-20T18:13:17.098Z,14.73
2018-12-20T18:15:45.600Z,15.30
2018-12-20T18:18:14.193Z,15.03
2018-12-20T18:20:42.856Z,15.90
2018-12-20T18:23:11.415Z,14.93
2018-12-20T18:25:39.913Z,15.87
2018-12-20T18:28:08.531Z,14.63
2018-12-20T18:30:37.045Z,14.87
2018-12-20T18:33:05.625Z,15.03
2018-12-20T18:35:34.239Z,14.93
2018-12-20T18:38:04.508Z,14.70
2018-12-20T18:40:33.032Z,14.17
2018-12-20T18:43:03.126Z,13.80
2018-12-20T18:45:31.674Z,14.73
2018-12-20T18:48:00.198Z,14.20
2018-12-20T18:50:28.736Z,13.70
2018-12-20T18:52:57.337Z,13.17
2018-12-20T18:55:25.815Z,13.70
2018-12-20T18:57:54.581Z,14.40
2018-12-20T19:00:23.148Z,14.13
2018-12-20T19:02:51.718Z,13.13
2018-12-20T19:05:20.311Z,13.17
2018-12-20T19:07:48.944Z,13.50
2018-12-20T19:10:17.791Z,13.23
2018-12-20T19:12:46.280Z,13.30
2018-12-20T19:15:14.836Z,13.00
2018-12-20T19:17:43.398Z,13.13
2018-12-20T19:20:16.153Z,12.87
2018-12-20T19:22:42.445Z,12.57
2018-12-20T19:25:10.987Z,12.07
2018-12-20T19:27:39.541Z,11.70
2018-12-20T19:30:10.132Z,11.87
2018-12-20T19:32:38.767Z,12.80
2018-12-20T19:35:07.892Z,12.93
2018-12-20T19:37:36.417Z,12.47
2018-12-20T19:40:09.397Z,12.43
2018-12-20T19:42:38.736Z,12.43
2018-12-20T19:45:07.480Z,11.97
2018-12-20T19:47:36.250Z,12.20
2018-12-20T19:50:07.798Z,10.43
2018-12-20T19:52:36.687Z,11.47
2018-12-20T19:55:06.472Z,11.70
2018-12-20T19:57:35.037Z,11.70
2018-12-20T20:00:10.636Z,12.33
2018-12-20T20:02:39.493Z,12.33
2018-12-20T20:05:09.317Z,12.37
2018-12-20T20:07:38.374Z,12.23
2018-12-20T20:10:09.486Z,11.43
2018-12-20T20:12:39.062Z,11.30
2018-12-20T20:15:16.365Z,11.67
2018-12-20T20:17:42.386Z,11.00
2018-12-20T20:20:14.103Z,11.73
2018-12-20T20:22:41.842Z,12.30
2018-12-20T20:25:10.534Z,12.23
2018-12-20T20:27:39.100Z,12.43
2018-12-20T20:30:11.023Z,13.33
2018-12-20T20:32:39.675Z,12.70
2018-12-20T20:35:08.626Z,13.00
2018-12-20T20:37:37.373Z,13.03
2018-12-20T20:40:07.897Z,12.43
2018-12-20T20:42:36.497Z,12.30
2018-12-20T20:45:06.554Z,12.90
2018-12-20T20:47:35.139Z,13.60
2018-12-20T20:50:06.971Z,13.10
2018-12-20T20:52:35.649Z,13.37
2018-12-20T20:55:07.306Z,13.47
2018-12-20T20:57:35.993Z,11.73
2018-12-20T21:00:09.677Z,12.77
2018-12-20T21:02:38.278Z,14.20
2018-12-20T21:05:08.134Z,13.97
2018-12-20T21:07:36.788Z,13.67
2018-12-20T21:10:10.666Z,14.67
2018-12-20T21:12:39.258Z,14.53
2018-12-20T21:15:10.225Z,15.77
2018-12-20T21:17:40.102Z,14.33
2018-12-20T21:20:11.413Z,16.80
2018-12-20T21:22:40.080Z,14.63
2018-12-20T21:25:08.619Z,15.37
2018-12-20T21:27:37.221Z,15.57
2018-12-20T21:30:07.566Z,15.40
2018-12-20T21:32:36.080Z,14.67
2018-12-20T21:35:05.760Z,14.87
2018-12-20T21:37:34.367Z,16.77
2018-12-20T21:40:05.186Z,16.07
2018-12-20T21:42:33.687Z,15.50
2018-12-20T21:45:03.803Z,15.30
2018-12-20T21:47:32.333Z,15.57
2018-12-20T21:50:00.892Z,14.30
2018-12-20T21:52:29.385Z,15.17
2018-12-20T21:54:58.328Z,14.70
2018-12-20T21:57:26.916Z,12.37
2018-12-20T22:00:01.149Z,14.57
2018-12-20T22:02:25.957Z,14.50
2018-12-20T22:04:54.586Z,14.40
2018-12-20T22:07:23.281Z,14.07
2018-12-20T22:09:51.806Z,13.10
2018-12-20T22:12:20.287Z,14.60
2018-12-20T22:14:48.795Z,13.90
2018-12-20T22:17:17.720Z,13.03
2018-12-20T22:19:46.222Z,12.97
2018-12-20T22:22:14.720Z,13.20
2018-12-20T22:24:43.267Z,12.70
2018-12-20T22:27:11.767Z,13.03
2018-12-20T22:29:40.453Z,11.13
2018-12-20T22:32:08.961Z,12.87
2018-12-20T22:34:37.442Z,12.23
2018-12-20T22:37:06.705Z,11.83
2018-12-20T22:39:35.182Z,12.23
2018-12-20T22:42:05.423Z,11.30
2018-12-20T22:44:33.904Z,12.10
2018-12-20T22:47:03.772Z,12.10
2018-12-20T22:49:32.296Z,9.97
2018-12-20T22:52:00.784Z,11.63
2018-12-20T22:54:29.243Z,9.83
2018-12-20T22:56:57.751Z,10.03
2018-12-20T22:59:26.497Z,10.30
2018-12-20T23:01:55.900Z,10.03
2018-12-20T23:04:24.478Z,9.57
2018-12-20T23:06:53.928Z,9.37
2018-12-20T23:09:22.455Z,9.60
2018-12-20T23:11:50.919Z,8.53
2018-12-20T23:14:19.663Z,8.97
2018-12-20T23:16:53.637Z,9.20
2018-12-20T23:19:18.654Z,8.70
2018-12-20T23:21:47.151Z,8.43
2018-12-20T23:24:15.650Z,8.77
2018-12-20T23:26:44.332Z,8.10
2018-12-20T23:29:13.026Z,8.37
2018-12-20T23:31:41.668Z,6.93
2018-12-20T23:34:10.150Z,8.90
2018-12-20T23:36:38.817Z,9.17
2018-12-20T23:39:07.779Z,8.53
2018-12-20T23:41:36.699Z,8.90
2018-12-20T23:44:07.218Z,8.20
2018-12-20T23:46:35.679Z,8.50
2018-12-20T23:49:05.588Z,9.03
2018-12-20T23:51:34.081Z,8.83
2018-12-20T23:54:04.491Z,9.00
2018-12-20T23:56:33.169Z,9.60
2018-12-20T23:59:03.919Z,8.90
